Jfe Tokyo Bay — JD2012 — position and weather

sailwx.info

Track history (hours):
 
Tides and Currents Weather Stations Pressure Air Temp Water Temp Dewpoint Dewpoint Depression Visibility Wind Speed Wind Dir Waves Ship Positions

Jfe Tokyo Bay

Last reported at 2017-Oct-17 00:25 UTC. Time now 2017-Oct-17 00:58 UTC.
Position N 35°23' E 139°39'.

Length 70 m; draft 3.9 m.

Type: Cargo ship. MMSI: 431501791.

Date/timePositionNaut miles runAvg speedWind from/ knotsBaromVisibWave heightAir tempDewpointWater temp
2017-Oct-17 00:25N 35°23' E 139°39'0 0.0
2017-Oct-16 23:55N 35°23' E 139°39'0 0.0
2017-Oct-16 23:30N 35°23' E 139°39'0 0.0
2017-Oct-16 23:00N 35°23' E 139°39'3 5.9
2017-Oct-16 22:31N 35°24' E 139°42'510.8
2017-Oct-16 22:01N 35°27' E 139°48'510.4
2017-Oct-16 21:30N 35°30' E 139°53'6 0.6
2017-Oct-16 11:00N 35°32' E 139°60'4 8.8
2017-Oct-16 10:30N 35°29' E 139°55'4 8.6
2017-Oct-16 10:00N 35°27' E 139°50'4 8.4
2017-Oct-16 09:30N 35°25' E 139°46'4 8.3
2017-Oct-16 09:00N 35°23' E 139°42'2 5.0
2017-Oct-16 08:31N 35°23' E 139°39'0 0.0
2017-Oct-16 07:58N 35°23' E 139°39'0 0.0
2017-Oct-16 07:28N 35°23' E 139°39'0 0.0
2017-Oct-16 06:58N 35°23' E 139°39'0 0.0
2017-Oct-16 06:28N 35°23' E 139°39'0 0.0
2017-Oct-16 05:58N 35°23' E 139°39'0 0.0
2017-Oct-16 05:28N 35°23' E 139°39'0 0.0
2017-Oct-16 04:58N 35°23' E 139°39'0 0.0
2017-Oct-16 04:28N 35°23' E 139°39'0 0.0
2017-Oct-16 03:58N 35°23' E 139°39'0 0.0
2017-Oct-16 03:28N 35°23' E 139°39'0 0.0
2017-Oct-16 02:58N 35°23' E 139°39'0 0.0
2017-Oct-16 02:28N 35°23' E 139°39'0 0.0
2017-Oct-16 01:58N 35°23' E 139°39'0 0.0
2017-Oct-16 01:28N 35°23' E 139°39'0 0.0
2017-Oct-16 00:58N 35°23' E 139°39'0 0.0
2017-Oct-16 00:28N 35°23' E 139°39'0 0.0
2017-Oct-15 23:58N 35°23' E 139°39'0 0.0
2017-Oct-15 23:28N 35°23' E 139°39'0 0.0
2017-Oct-15 23:01N 35°23' E 139°39'3 6.2
2017-Oct-15 22:31N 35°24' E 139°42'510.3
2017-Oct-15 22:00N 35°27' E 139°47'510.2
2017-Oct-15 21:30N 35°30' E 139°52'510.1
2017-Oct-15 20:59N 35°32' E 139°58'3 0.1
2017-Oct-14 02:02N 35°31' E 140°01'0 9.1
2017-Oct-14 02:00N 35°30' E 140°01'1 0.4
2017-Oct-13 22:49N 35°29' E 140°00'3 6.5
2017-Oct-13 22:22N 35°30' E 139°57'2 5.0
2017-Oct-13 22:00N 35°29' E 139°55'3 6.8
2017-Oct-13 21:30N 35°28' E 139°51'4 8.2
2017-Oct-13 21:00N 35°27' E 139°47'4 7.7
2017-Oct-13 20:30N 35°28' E 139°42'0 0.2
2017-Oct-13 19:59N 35°28' E 139°42'0 0.0
2017-Oct-13 19:29N 35°28' E 139°42'0 0.0
2017-Oct-13 18:59N 35°28' E 139°42'0 0.0
2017-Oct-13 18:26N 35°28' E 139°42'0 0.0
2017-Oct-13 17:59N 35°28' E 139°42'0 0.0
2017-Oct-13 17:29N 35°28' E 139°42'0 0.0
2017-Oct-13 16:59N 35°28' E 139°42'0 0.0
2017-Oct-13 16:29N 35°28' E 139°42'0 0.0
2017-Oct-13 15:59N 35°28' E 139°42'0 0.0
2017-Oct-13 15:29N 35°28' E 139°42'0 0.0
2017-Oct-13 14:59N 35°28' E 139°42'0 0.0
2017-Oct-13 14:29N 35°28' E 139°42'0 0.0
2017-Oct-13 13:59N 35°28' E 139°42'0 0.0
2017-Oct-13 13:29N 35°28' E 139°42'0 0.0
2017-Oct-13 12:56N 35°28' E 139°42'0 0.0
2017-Oct-13 12:29N 35°28' E 139°42'0 0.1
2017-Oct-13 12:01N 35°28' E 139°42'2 4.4
2017-Oct-13 11:30N 35°26' E 139°43'3 6.9
2017-Oct-13 11:00N 35°23' E 139°41'2 4.1
2017-Oct-13 10:30N 35°23' E 139°39'0 0.0
2017-Oct-13 10:00N 35°23' E 139°39'0 0.0
2017-Oct-13 09:30N 35°23' E 139°39'0 0.0
2017-Oct-13 09:00N 35°23' E 139°39'0 0.0
2017-Oct-13 08:30N 35°23' E 139°39'0 0.0
2017-Oct-13 08:00N 35°23' E 139°39'0 0.0
2017-Oct-13 07:30N 35°23' E 139°39'0 0.0
2017-Oct-13 07:00N 35°23' E 139°39'0 0.0
2017-Oct-13 06:30N 35°23' E 139°39'0 0.0
2017-Oct-13 06:00N 35°23' E 139°39'0 0.0
2017-Oct-13 05:30N 35°23' E 139°39'0 0.0
2017-Oct-13 05:00N 35°23' E 139°39'0 0.0
2017-Oct-13 04:30N 35°23' E 139°39'0 0.0
2017-Oct-13 04:00N 35°23' E 139°39'0 0.0
2017-Oct-13 03:30N 35°23' E 139°39'0 0.0
2017-Oct-13 03:00N 35°23' E 139°39'0 0.0
2017-Oct-13 02:30N 35°23' E 139°39'0 0.0
2017-Oct-13 02:00N 35°23' E 139°39'0 0.0
2017-Oct-13 01:27N 35°23' E 139°39'0 0.0
2017-Oct-13 01:00N 35°23' E 139°39'0 0.0
2017-Oct-13 00:30N 35°23' E 139°39'0 0.0
2017-Oct-13 00:00N 35°23' E 139°39'0 0.0
2017-Oct-12 23:30N 35°23' E 139°39'0 0.0
2017-Oct-12 23:00N 35°23' E 139°39'3 6.7
2017-Oct-12 22:30N 35°24' E 139°42'510.1
2017-Oct-12 22:00N 35°27' E 139°48'510.2
2017-Oct-12 21:30N 35°30' E 139°53'6 0.5
2017-Oct-12 10:15N 35°32' E 139°60'3 9.8
2017-Oct-12 09:55N 35°30' E 139°56'410.3
2017-Oct-12 09:31N 35°28' E 139°52'510.6
2017-Oct-12 09:00N 35°25' E 139°46'5 9.9
2017-Oct-12 08:30N 35°23' E 139°41'2 3.0
2017-Oct-12 07:59N 35°23' E 139°39'0 0.0
2017-Oct-12 07:29N 35°23' E 139°39'0 0.0
2017-Oct-12 06:59N 35°23' E 139°39'0 0.0
2017-Oct-12 06:26N 35°23' E 139°39'0 0.0
2017-Oct-12 05:59N 35°23' E 139°39'0 0.0
2017-Oct-12 05:29N 35°23' E 139°39'0 0.0
2017-Oct-12 04:59N 35°23' E 139°39'0 0.0
2017-Oct-12 04:29N 35°23' E 139°39'0 0.0
2017-Oct-12 03:59N 35°23' E 139°39'0 0.0
2017-Oct-12 03:29N 35°23' E 139°39'0 0.0
2017-Oct-12 02:59N 35°23' E 139°39'0 0.0
2017-Oct-12 02:29N 35°23' E 139°39'0 0.0
2017-Oct-12 01:59N 35°23' E 139°39'0 0.0
2017-Oct-12 01:29N 35°23' E 139°39'0 0.0
2017-Oct-12 00:59N 35°23' E 139°39'0 0.0
2017-Oct-12 00:29N 35°23' E 139°39'0 0.0
2017-Oct-11 23:59N 35°23' E 139°39'0 0.0
2017-Oct-11 23:29N 35°23' E 139°39'0 0.3
2017-Oct-11 23:00N 35°23' E 139°39'0 0.0
2017-Oct-11 00:00N 35°23' E 139°39'0 0.0
2017-Oct-10 23:30N 35°23' E 139°39'1 1.9
2017-Oct-10 22:56N 35°23' E 139°40'7 0.6
2017-Oct-10 09:23N 35°26' E 139°48'410.4
2017-Oct-10 08:59N 35°25' E 139°44'4 9.3
2017-Oct-10 08:30N 35°23' E 139°39'0 0.1
2017-Oct-10 07:24N 35°23' E 139°39'0 0.0
2017-Oct-10 07:00N 35°23' E 139°39'0 0.0
2017-Oct-10 06:30N 35°23' E 139°39'0 0.0
2017-Oct-10 06:00N 35°23' E 139°39'0 0.0
2017-Oct-10 05:30N 35°23' E 139°39'0 0.0
2017-Oct-10 05:00N 35°23' E 139°39'0 0.0
2017-Oct-10 04:30N 35°23' E 139°39'0 0.0
2017-Oct-10 04:00N 35°23' E 139°39'0 0.0
2017-Oct-10 03:30N 35°23' E 139°39'0 0.0
2017-Oct-10 03:00N 35°23' E 139°39'0 0.0
2017-Oct-10 02:30N 35°23' E 139°39'0 0.0
2017-Oct-10 02:00N 35°23' E 139°39'0 0.0
2017-Oct-10 01:30N 35°23' E 139°39'0 0.0
2017-Oct-10 01:00N 35°23' E 139°39'0 0.0
2017-Oct-10 00:30N 35°23' E 139°39'0 0.0
2017-Oct-10 00:00N 35°23' E 139°39'0 0.0
2017-Oct-09 23:30N 35°23' E 139°39'0 0.0
2017-Oct-09 23:00N 35°23' E 139°39'0 0.0
2017-Oct-09 22:30N 35°23' E 139°39'0 0.0
2017-Oct-09 22:00N 35°23' E 139°39'0 0.0
2017-Oct-09 21:30N 35°23' E 139°39'0 0.0
2017-Oct-09 21:00N 35°23' E 139°39'0 0.0
2017-Oct-09 20:30N 35°23' E 139°39'0 0.0
2017-Oct-09 19:59N 35°23' E 139°39'0 0.0
2017-Oct-09 19:23N 35°23' E 139°39'0 0.0
2017-Oct-09 18:59N 35°23' E 139°39'0 0.0
2017-Oct-09 18:29N 35°23' E 139°39'0 0.0
2017-Oct-09 17:59N 35°23' E 139°39'0 0.0
2017-Oct-09 17:17N 35°23' E 139°39'0 0.0
2017-Oct-09 16:23N 35°23' E 139°39'0 0.0
2017-Oct-09 15:59N 35°23' E 139°39'0 0.0
2017-Oct-09 15:29N 35°23' E 139°39'0 0.0
2017-Oct-09 14:47N 35°23' E 139°39'0 0.0
2017-Oct-09 14:29N 35°23' E 139°39'0 0.0
2017-Oct-09 13:35N 35°23' E 139°39'0 0.0
2017-Oct-09 13:29N 35°23' E 139°39'0 0.0
2017-Oct-09 12:59N 35°23' E 139°39'0 0.0
2017-Oct-09 12:29N 35°23' E 139°39'0 0.0
2017-Oct-09 11:53N 35°23' E 139°39'0 0.0
2017-Oct-09 11:23N 35°23' E 139°39'0 0.0
2017-Oct-09 10:53N 35°23' E 139°39'0 0.0
2017-Oct-09 10:23N 35°23' E 139°39'0 0.0
2017-Oct-09 09:53N 35°23' E 139°39'0 0.0
2017-Oct-09 09:23N 35°23' E 139°39'0 0.0
2017-Oct-09 08:59N 35°23' E 139°39'0 0.0
2017-Oct-09 08:29N 35°23' E 139°39'0 0.0
2017-Oct-09 06:11N 35°23' E 139°39'0 0.0
2017-Oct-09 05:41N 35°23' E 139°39'0 0.0
2017-Oct-09 05:17N 35°23' E 139°39'0 0.0
2017-Oct-09 04:53N 35°23' E 139°39'0 0.0
2017-Oct-09 03:41N 35°23' E 139°39'0 0.0
2017-Oct-09 02:35N 35°23' E 139°39'0 0.0
2017-Oct-09 02:05N 35°23' E 139°39'0 0.0
2017-Oct-09 01:59N 35°23' E 139°39'0 0.0
2017-Oct-09 01:29N 35°23' E 139°39'0 0.0
2017-Oct-09 00:59N 35°23' E 139°39'0 0.0
2017-Oct-09 00:29N 35°23' E 139°39'0 0.0
2017-Oct-08 23:59N 35°23' E 139°39'0 0.0
2017-Oct-08 23:29N 35°23' E 139°39'0 0.9
2017-Oct-08 23:00N 35°24' E 139°39'6 8.8
2017-Oct-08 22:22N 35°26' E 139°45'19 0.5
2017-Oct-07 08:16N 35°33' E 140°06'3 7.3
2017-Oct-07 07:48N 35°33' E 140°02'2 7.4
2017-Oct-07 07:30N 35°31' E 140°00'  
Track history (hours):
 
Tides and Currents Weather Stations Pressure Air Temp Water Temp Dewpoint Dewpoint Depression Visibility Wind Speed Wind Dir Waves Ship Positions

Jfe Tokyo Bay

Last reported at 2017-Oct-17 00:25 UTC. Time now 2017-Oct-17 00:58 UTC.
Position N 35°23' E 139°39'.

Length 70 m; draft 3.9 m.

Type: Cargo ship. MMSI: 431501791.

Date/timePositionNaut miles runAvg speedWind from/ knotsBaromVisibWave heightAir tempDewpointWater temp
2017-Oct-17 00:25N 35°23' E 139°39'0 0.0
2017-Oct-16 23:55N 35°23' E 139°39'0 0.0
2017-Oct-16 23:30N 35°23' E 139°39'0 0.0
2017-Oct-16 23:00N 35°23' E 139°39'3 5.9
2017-Oct-16 22:31N 35°24' E 139°42'510.8
2017-Oct-16 22:01N 35°27' E 139°48'510.4
2017-Oct-16 21:30N 35°30' E 139°53'6 0.6
2017-Oct-16 11:00N 35°32' E 139°60'4 8.8
2017-Oct-16 10:30N 35°29' E 139°55'4 8.6
2017-Oct-16 10:00N 35°27' E 139°50'4 8.4
2017-Oct-16 09:30N 35°25' E 139°46'4 8.3
2017-Oct-16 09:00N 35°23' E 139°42'2 5.0
2017-Oct-16 08:31N 35°23' E 139°39'0 0.0
2017-Oct-16 07:58N 35°23' E 139°39'0 0.0
2017-Oct-16 07:28N 35°23' E 139°39'0 0.0
2017-Oct-16 06:58N 35°23' E 139°39'0 0.0
2017-Oct-16 06:28N 35°23' E 139°39'0 0.0
2017-Oct-16 05:58N 35°23' E 139°39'0 0.0
2017-Oct-16 05:28N 35°23' E 139°39'0 0.0
2017-Oct-16 04:58N 35°23' E 139°39'0 0.0
2017-Oct-16 04:28N 35°23' E 139°39'0 0.0
2017-Oct-16 03:58N 35°23' E 139°39'0 0.0
2017-Oct-16 03:28N 35°23' E 139°39'0 0.0
2017-Oct-16 02:58N 35°23' E 139°39'0 0.0
2017-Oct-16 02:28N 35°23' E 139°39'0 0.0
2017-Oct-16 01:58N 35°23' E 139°39'0 0.0
2017-Oct-16 01:28N 35°23' E 139°39'0 0.0
2017-Oct-16 00:58N 35°23' E 139°39'0 0.0
2017-Oct-16 00:28N 35°23' E 139°39'0 0.0
2017-Oct-15 23:58N 35°23' E 139°39'0 0.0
2017-Oct-15 23:28N 35°23' E 139°39'0 0.0
2017-Oct-15 23:01N 35°23' E 139°39'3 6.2
2017-Oct-15 22:31N 35°24' E 139°42'510.3
2017-Oct-15 22:00N 35°27' E 139°47'510.2
2017-Oct-15 21:30N 35°30' E 139°52'510.1
2017-Oct-15 20:59N 35°32' E 139°58'3 0.1
2017-Oct-14 02:02N 35°31' E 140°01'0 9.1
2017-Oct-14 02:00N 35°30' E 140°01'1 0.4
2017-Oct-13 22:49N 35°29' E 140°00'3 6.5
2017-Oct-13 22:22N 35°30' E 139°57'2 5.0
2017-Oct-13 22:00N 35°29' E 139°55'3 6.8
2017-Oct-13 21:30N 35°28' E 139°51'4 8.2
2017-Oct-13 21:00N 35°27' E 139°47'4 7.7
2017-Oct-13 20:30N 35°28' E 139°42'0 0.2
2017-Oct-13 19:59N 35°28' E 139°42'0 0.0
2017-Oct-13 19:29N 35°28' E 139°42'0 0.0
2017-Oct-13 18:59N 35°28' E 139°42'0 0.0
2017-Oct-13 18:26N 35°28' E 139°42'0 0.0
2017-Oct-13 17:59N 35°28' E 139°42'0 0.0
2017-Oct-13 17:29N 35°28' E 139°42'0 0.0
2017-Oct-13 16:59N 35°28' E 139°42'0 0.0
2017-Oct-13 16:29N 35°28' E 139°42'0 0.0
2017-Oct-13 15:59N 35°28' E 139°42'0 0.0
2017-Oct-13 15:29N 35°28' E 139°42'0 0.0
2017-Oct-13 14:59N 35°28' E 139°42'0 0.0
2017-Oct-13 14:29N 35°28' E 139°42'0 0.0
2017-Oct-13 13:59N 35°28' E 139°42'0 0.0
2017-Oct-13 13:29N 35°28' E 139°42'0 0.0
2017-Oct-13 12:56N 35°28' E 139°42'0 0.0
2017-Oct-13 12:29N 35°28' E 139°42'0 0.1
2017-Oct-13 12:01N 35°28' E 139°42'2 4.4
2017-Oct-13 11:30N 35°26' E 139°43'3 6.9
2017-Oct-13 11:00N 35°23' E 139°41'2 4.1
2017-Oct-13 10:30N 35°23' E 139°39'0 0.0
2017-Oct-13 10:00N 35°23' E 139°39'0 0.0
2017-Oct-13 09:30N 35°23' E 139°39'0 0.0
2017-Oct-13 09:00N 35°23' E 139°39'0 0.0
2017-Oct-13 08:30N 35°23' E 139°39'0 0.0
2017-Oct-13 08:00N 35°23' E 139°39'0 0.0
2017-Oct-13 07:30N 35°23' E 139°39'0 0.0
2017-Oct-13 07:00N 35°23' E 139°39'0 0.0
2017-Oct-13 06:30N 35°23' E 139°39'0 0.0
2017-Oct-13 06:00N 35°23' E 139°39'0 0.0
2017-Oct-13 05:30N 35°23' E 139°39'0 0.0
2017-Oct-13 05:00N 35°23' E 139°39'0 0.0
2017-Oct-13 04:30N 35°23' E 139°39'0 0.0
2017-Oct-13 04:00N 35°23' E 139°39'0 0.0
2017-Oct-13 03:30N 35°23' E 139°39'0 0.0
2017-Oct-13 03:00N 35°23' E 139°39'0 0.0
2017-Oct-13 02:30N 35°23' E 139°39'0 0.0
2017-Oct-13 02:00N 35°23' E 139°39'0 0.0
2017-Oct-13 01:27N 35°23' E 139°39'0 0.0
2017-Oct-13 01:00N 35°23' E 139°39'0 0.0
2017-Oct-13 00:30N 35°23' E 139°39'0 0.0
2017-Oct-13 00:00N 35°23' E 139°39'0 0.0
2017-Oct-12 23:30N 35°23' E 139°39'0 0.0
2017-Oct-12 23:00N 35°23' E 139°39'3 6.7
2017-Oct-12 22:30N 35°24' E 139°42'510.1
2017-Oct-12 22:00N 35°27' E 139°48'510.2
2017-Oct-12 21:30N 35°30' E 139°53'6 0.5
2017-Oct-12 10:15N 35°32' E 139°60'3 9.8
2017-Oct-12 09:55N 35°30' E 139°56'410.3
2017-Oct-12 09:31N 35°28' E 139°52'510.6
2017-Oct-12 09:00N 35°25' E 139°46'5 9.9
2017-Oct-12 08:30N 35°23' E 139°41'2 3.0
2017-Oct-12 07:59N 35°23' E 139°39'0 0.0
2017-Oct-12 07:29N 35°23' E 139°39'0 0.0
2017-Oct-12 06:59N 35°23' E 139°39'0 0.0
2017-Oct-12 06:26N 35°23' E 139°39'0 0.0
2017-Oct-12 05:59N 35°23' E 139°39'0 0.0
2017-Oct-12 05:29N 35°23' E 139°39'0 0.0
2017-Oct-12 04:59N 35°23' E 139°39'0 0.0
2017-Oct-12 04:29N 35°23' E 139°39'0 0.0
2017-Oct-12 03:59N 35°23' E 139°39'0 0.0
2017-Oct-12 03:29N 35°23' E 139°39'0 0.0
2017-Oct-12 02:59N 35°23' E 139°39'0 0.0
2017-Oct-12 02:29N 35°23' E 139°39'0 0.0
2017-Oct-12 01:59N 35°23' E 139°39'0 0.0
2017-Oct-12 01:29N 35°23' E 139°39'0 0.0
2017-Oct-12 00:59N 35°23' E 139°39'0 0.0
2017-Oct-12 00:29N 35°23' E 139°39'0 0.0
2017-Oct-11 23:59N 35°23' E 139°39'0 0.0
2017-Oct-11 23:29N 35°23' E 139°39'0 0.3
2017-Oct-11 23:00N 35°23' E 139°39'0 0.0
2017-Oct-11 00:00N 35°23' E 139°39'0 0.0
2017-Oct-10 23:30N 35°23' E 139°39'1 1.9
2017-Oct-10 22:56N 35°23' E 139°40'7 0.6
2017-Oct-10 09:23N 35°26' E 139°48'410.4
2017-Oct-10 08:59N 35°25' E 139°44'4 9.3
2017-Oct-10 08:30N 35°23' E 139°39'0 0.1
2017-Oct-10 07:24N 35°23' E 139°39'0 0.0
2017-Oct-10 07:00N 35°23' E 139°39'0 0.0
2017-Oct-10 06:30N 35°23' E 139°39'0 0.0
2017-Oct-10 06:00N 35°23' E 139°39'0 0.0
2017-Oct-10 05:30N 35°23' E 139°39'0 0.0
2017-Oct-10 05:00N 35°23' E 139°39'0 0.0
2017-Oct-10 04:30N 35°23' E 139°39'0 0.0
2017-Oct-10 04:00N 35°23' E 139°39'0 0.0
2017-Oct-10 03:30N 35°23' E 139°39'0 0.0
2017-Oct-10 03:00N 35°23' E 139°39'0 0.0
2017-Oct-10 02:30N 35°23' E 139°39'0 0.0
2017-Oct-10 02:00N 35°23' E 139°39'0 0.0
2017-Oct-10 01:30N 35°23' E 139°39'0 0.0
2017-Oct-10 01:00N 35°23' E 139°39'0 0.0
2017-Oct-10 00:30N 35°23' E 139°39'0 0.0
2017-Oct-10 00:00N 35°23' E 139°39'0 0.0
2017-Oct-09 23:30N 35°23' E 139°39'0 0.0
2017-Oct-09 23:00N 35°23' E 139°39'0 0.0
2017-Oct-09 22:30N 35°23' E 139°39'0 0.0
2017-Oct-09 22:00N 35°23' E 139°39'0 0.0
2017-Oct-09 21:30N 35°23' E 139°39'0 0.0
2017-Oct-09 21:00N 35°23' E 139°39'0 0.0
2017-Oct-09 20:30N 35°23' E 139°39'0 0.0
2017-Oct-09 19:59N 35°23' E 139°39'0 0.0
2017-Oct-09 19:23N 35°23' E 139°39'0 0.0
2017-Oct-09 18:59N 35°23' E 139°39'0 0.0
2017-Oct-09 18:29N 35°23' E 139°39'0 0.0
2017-Oct-09 17:59N 35°23' E 139°39'0 0.0
2017-Oct-09 17:17N 35°23' E 139°39'0 0.0
2017-Oct-09 16:23N 35°23' E 139°39'0 0.0
2017-Oct-09 15:59N 35°23' E 139°39'0 0.0
2017-Oct-09 15:29N 35°23' E 139°39'0 0.0
2017-Oct-09 14:47N 35°23' E 139°39'0 0.0
2017-Oct-09 14:29N 35°23' E 139°39'0 0.0
2017-Oct-09 13:35N 35°23' E 139°39'0 0.0
2017-Oct-09 13:29N 35°23' E 139°39'0 0.0
2017-Oct-09 12:59N 35°23' E 139°39'0 0.0
2017-Oct-09 12:29N 35°23' E 139°39'0 0.0
2017-Oct-09 11:53N 35°23' E 139°39'0 0.0
2017-Oct-09 11:23N 35°23' E 139°39'0 0.0
2017-Oct-09 10:53N 35°23' E 139°39'0 0.0
2017-Oct-09 10:23N 35°23' E 139°39'0 0.0
2017-Oct-09 09:53N 35°23' E 139°39'0 0.0
2017-Oct-09 09:23N 35°23' E 139°39'0 0.0
2017-Oct-09 08:59N 35°23' E 139°39'0 0.0
2017-Oct-09 08:29N 35°23' E 139°39'0 0.0
2017-Oct-09 06:11N 35°23' E 139°39'0 0.0
2017-Oct-09 05:41N 35°23' E 139°39'0 0.0
2017-Oct-09 05:17N 35°23' E 139°39'0 0.0
2017-Oct-09 04:53N 35°23' E 139°39'0 0.0
2017-Oct-09 03:41N 35°23' E 139°39'0 0.0
2017-Oct-09 02:35N 35°23' E 139°39'0 0.0
2017-Oct-09 02:05N 35°23' E 139°39'0 0.0
2017-Oct-09 01:59N 35°23' E 139°39'0 0.0
2017-Oct-09 01:29N 35°23' E 139°39'0 0.0
2017-Oct-09 00:59N 35°23' E 139°39'0 0.0
2017-Oct-09 00:29N 35°23' E 139°39'0 0.0
2017-Oct-08 23:59N 35°23' E 139°39'0 0.0
2017-Oct-08 23:29N 35°23' E 139°39'0 0.9
2017-Oct-08 23:00N 35°24' E 139°39'6 8.8
2017-Oct-08 22:22N 35°26' E 139°45'19 0.5
2017-Oct-07 08:16N 35°33' E 140°06'3 7.3
2017-Oct-07 07:48N 35°33' E 140°02'2 7.4
2017-Oct-07 07:30N 35°31' E 140°00'  

Dump ship's entire track history